createdAt,value
2022-11-23T00:01:12.849Z,10.14
2022-11-23T00:03:39.333Z,9.59
2022-11-23T00:06:05.953Z,9.97
2022-11-23T00:08:32.519Z,10.07
2022-11-23T00:10:59.456Z,10.19
2022-11-23T00:13:26.485Z,10.14
2022-11-23T00:15:53.063Z,9.86
2022-11-23T00:18:19.521Z,10.31
2022-11-23T00:20:46.078Z,9.99
2022-11-23T00:23:12.615Z,10.19
2022-11-23T00:25:39.323Z,10.49
2022-11-23T00:28:06.053Z,10.29
2022-11-23T00:30:32.560Z,10.52
2022-11-23T00:32:59.143Z,10.22
2022-11-23T00:35:25.681Z,10.06
2022-11-23T00:37:52.158Z,10.04
2022-11-23T00:40:18.795Z,10.00
2022-11-23T00:42:45.294Z,10.07
2022-11-23T00:45:11.749Z,10.43
2022-11-23T00:47:38.366Z,10.21
2022-11-23T00:50:05.341Z,10.34
2022-11-23T00:52:31.826Z,10.09
2022-11-23T00:54:58.288Z,10.44
2022-11-23T00:57:24.774Z,10.07
2022-11-23T00:59:51.192Z,10.12
2022-11-23T01:02:17.686Z,10.01
2022-11-23T01:04:44.206Z,9.96
2022-11-23T01:07:10.695Z,10.12
2022-11-23T01:09:37.201Z,10.25
2022-11-23T01:12:03.796Z,10.03
2022-11-23T01:14:30.279Z,9.96
2022-11-23T01:16:56.754Z,9.74
2022-11-23T01:19:23.240Z,10.02
2022-11-23T01:21:50.206Z,10.10
2022-11-23T01:24:23.050Z,10.05
2022-11-23T01:26:54.094Z,10.05
2022-11-23T01:29:21.537Z,10.32
2022-11-23T01:31:48.323Z,10.13
2022-11-23T01:34:15.896Z,10.11
2022-11-23T01:36:43.032Z,10.23
2022-11-23T01:39:11.115Z,10.01
2022-11-23T01:41:40.703Z,10.54
2022-11-23T01:44:25.411Z,10.14
2022-11-23T01:46:51.895Z,10.14
2022-11-23T01:49:18.892Z,9.96
2022-11-23T01:51:48.627Z,10.06
2022-11-23T01:54:20.290Z,10.11
2022-11-23T01:56:52.947Z,9.86
2022-11-23T01:59:20.287Z,9.82
2022-11-23T02:01:46.929Z,10.20
2022-11-23T02:04:19.356Z,9.94
2022-11-23T02:06:47.828Z,10.17
2022-11-23T02:09:16.345Z,10.17
2022-11-23T02:11:43.298Z,9.84
2022-11-23T02:14:10.208Z,10.43
2022-11-23T02:16:38.009Z,10.08
2022-11-23T02:19:12.477Z,9.97
2022-11-23T02:21:40.999Z,10.42
2022-11-23T02:24:17.807Z,10.14
2022-11-23T02:26:44.480Z,10.19
2022-11-23T02:29:16.958Z,10.48
2022-11-23T02:31:43.440Z,10.29
2022-11-23T02:34:10.161Z,10.44
2022-11-23T02:36:38.865Z,10.58
2022-11-23T02:39:22.699Z,10.47
2022-11-23T02:41:53.082Z,10.22
2022-11-23T02:44:42.107Z,10.20
2022-11-23T02:47:10.232Z,10.49
2022-11-23T02:49:37.542Z,10.29
2022-11-23T02:52:04.529Z,10.40
2022-11-23T02:54:31.090Z,10.21
2022-11-23T02:56:57.593Z,10.73
2022-11-23T02:59:24.172Z,10.70
2022-11-23T03:01:50.748Z,10.21
2022-11-23T03:04:17.436Z,10.42
2022-11-23T03:06:43.986Z,10.33
2022-11-23T03:09:10.876Z,10.31
2022-11-23T03:11:37.357Z,10.74
2022-11-23T03:14:04.153Z,10.38
2022-11-23T03:16:30.728Z,10.08
2022-11-23T03:18:57.275Z,10.49
2022-11-23T03:21:23.715Z,10.16
2022-11-23T03:23:50.204Z,10.15
2022-11-23T03:26:16.681Z,10.28
2022-11-23T03:28:43.585Z,10.54
2022-11-23T03:31:10.232Z,10.56
2022-11-23T03:33:36.757Z,10.52
2022-11-23T03:36:03.362Z,9.75
2022-11-23T03:38:29.996Z,9.84
2022-11-23T03:40:56.484Z,10.09
2022-11-23T03:43:23.095Z,10.37
2022-11-23T03:45:49.575Z,10.16
2022-11-23T03:48:16.064Z,10.00
2022-11-23T03:50:43.780Z,10.19
2022-11-23T03:53:10.927Z,10.34
2022-11-23T03:55:37.678Z,10.48
2022-11-23T03:58:04.580Z,10.37
2022-11-23T04:00:31.858Z,10.33
2022-11-23T04:02:58.368Z,10.49
2022-11-23T04:05:24.934Z,10.57
2022-11-23T04:07:51.448Z,10.91
2022-11-23T04:10:19.421Z,10.47
2022-11-23T04:12:46.015Z,10.63
2022-11-23T04:15:12.502Z,10.35
2022-11-23T04:17:39.067Z,10.77
2022-11-23T04:20:06.296Z,10.01
2022-11-23T04:22:32.736Z,10.48
2022-11-23T04:24:59.259Z,10.24
2022-11-23T04:27:25.749Z,10.26
2022-11-23T04:29:52.236Z,10.13
2022-11-23T04:32:18.696Z,10.43
2022-11-23T04:34:45.332Z,10.49
2022-11-23T04:37:13.609Z,10.68
2022-11-23T04:39:40.412Z,10.45
2022-11-23T04:42:07.009Z,10.47
2022-11-23T04:44:33.512Z,10.52
2022-11-23T04:47:00.052Z,10.33
2022-11-23T04:49:26.680Z,11.05
2022-11-23T04:51:53.211Z,10.41
2022-11-23T04:54:19.818Z,10.31
2022-11-23T04:56:46.372Z,10.33
2022-11-23T04:59:13.004Z,10.33
2022-11-23T05:01:39.518Z,10.28
2022-11-23T05:04:06.132Z,10.43
2022-11-23T05:06:32.608Z,10.35
2022-11-23T05:08:59.160Z,10.45
2022-11-23T05:11:26.979Z,10.60
2022-11-23T05:13:53.508Z,10.68
2022-11-23T05:16:19.982Z,10.44
2022-11-23T05:18:46.515Z,10.60
2022-11-23T05:21:12.963Z,10.07
2022-11-23T05:23:39.500Z,10.24
2022-11-23T05:26:06.031Z,10.59
2022-11-23T05:28:41.269Z,10.69
2022-11-23T05:31:08.895Z,10.34
2022-11-23T05:33:36.072Z,10.38
2022-11-23T05:36:03.488Z,10.49
2022-11-23T05:38:30.294Z,10.48
2022-11-23T05:40:56.985Z,10.33
2022-11-23T05:43:23.494Z,10.54
2022-11-23T05:45:50.051Z,10.73
2022-11-23T05:48:16.739Z,10.24
2022-11-23T05:50:43.299Z,10.29
2022-11-23T05:53:10.047Z,10.09
2022-11-23T05:55:36.573Z,10.63
2022-11-23T05:58:03.735Z,10.54
2022-11-23T06:00:30.376Z,10.34
2022-11-23T06:03:03.486Z,10.63
2022-11-23T06:05:30.800Z,10.82
2022-11-23T06:07:57.593Z,10.07
2022-11-23T06:10:24.053Z,10.27
2022-11-23T06:12:51.581Z,10.61
2022-11-23T06:15:18.736Z,10.21
2022-11-23T06:17:45.217Z,9.82
2022-11-23T06:20:11.968Z,10.22
2022-11-23T06:22:38.543Z,10.78
2022-11-23T06:25:05.676Z,10.37
2022-11-23T06:27:32.232Z,10.09
2022-11-23T06:29:58.773Z,10.34
2022-11-23T06:32:25.316Z,10.22
2022-11-23T06:34:51.842Z,10.35
2022-11-23T06:37:18.737Z,10.60
2022-11-23T06:39:45.340Z,10.32
2022-11-23T06:44:59.839Z,10.23
2022-11-23T06:47:28.291Z,10.30
2022-11-23T06:49:54.900Z,10.25
2022-11-23T06:52:21.349Z,10.54
2022-11-23T06:54:47.899Z,10.29
2022-11-23T06:57:14.352Z,10.72
2022-11-23T06:59:44.686Z,10.45
2022-11-23T07:02:12.489Z,10.35
2022-11-23T07:04:39.013Z,9.93
2022-11-23T07:07:07.854Z,9.95
2022-11-23T07:09:35.060Z,10.06
2022-11-23T07:12:01.937Z,9.86
2022-11-23T07:14:28.539Z,9.79
2022-11-23T07:16:55.029Z,10.24
2022-11-23T07:19:21.600Z,9.97
2022-11-23T07:21:48.325Z,10.32
2022-11-23T07:24:15.053Z,10.22
2022-11-23T07:26:41.664Z,10.34
2022-11-23T07:29:08.159Z,10.69
2022-11-23T07:31:34.710Z,10.52
2022-11-23T07:34:01.259Z,10.53
2022-11-23T07:36:27.807Z,10.56
2022-11-23T07:38:54.281Z,10.41
2022-11-23T07:41:20.803Z,10.91
2022-11-23T07:43:47.504Z,11.45
2022-11-23T07:46:14.001Z,11.40
2022-11-23T07:48:40.537Z,11.62
2022-11-23T07:51:07.075Z,11.55
2022-11-23T07:53:33.579Z,11.86
2022-11-23T07:56:00.169Z,12.07
2022-11-23T07:58:26.806Z,11.79
2022-11-23T08:00:53.575Z,11.85
2022-11-23T08:03:27.782Z,12.17
2022-11-23T08:05:55.000Z,11.91
2022-11-23T08:08:21.617Z,11.55
2022-11-23T08:10:53.016Z,11.55
2022-11-23T08:13:20.256Z,11.30
2022-11-23T08:15:53.247Z,11.28
2022-11-23T08:18:21.526Z,11.70
2022-11-23T08:20:48.102Z,11.83
2022-11-23T08:23:14.612Z,11.30
2022-11-23T08:25:41.521Z,11.36
2022-11-23T08:28:08.064Z,11.33
2022-11-23T08:30:34.891Z,11.83
2022-11-23T08:33:08.721Z,11.07
2022-11-23T08:35:37.129Z,11.57
2022-11-23T08:38:04.440Z,11.57
2022-11-23T08:40:31.242Z,11.25
2022-11-23T08:42:57.717Z,11.57
2022-11-23T08:45:24.458Z,11.38
2022-11-23T08:47:51.148Z,11.25
2022-11-23T08:50:17.840Z,11.07
2022-11-23T08:52:44.391Z,10.67
2022-11-23T08:55:11.305Z,11.48
2022-11-23T08:57:59.435Z,12.05
2022-11-23T09:00:27.124Z,13.03
2022-11-23T09:02:54.021Z,13.70
2022-11-23T09:05:20.596Z,14.30
2022-11-23T09:07:47.167Z,14.78
2022-11-23T09:10:18.345Z,15.47
2022-11-23T09:12:45.925Z,16.63
2022-11-23T09:15:12.476Z,16.55
2022-11-23T09:17:38.992Z,16.85
2022-11-23T09:20:06.135Z,16.98
2022-11-23T09:22:32.763Z,16.99
2022-11-23T09:24:59.275Z,16.94
2022-11-23T09:27:25.857Z,16.39
2022-11-23T09:29:52.752Z,16.28
2022-11-23T09:32:19.326Z,17.04
2022-11-23T09:34:45.898Z,18.93
2022-11-23T09:37:13.647Z,17.92
2022-11-23T09:39:40.185Z,18.12
2022-11-23T09:42:25.454Z,17.35
2022-11-23T09:45:33.536Z,17.85
2022-11-23T09:48:15.834Z,18.27
2022-11-23T09:50:59.234Z,16.55
2022-11-23T09:53:34.677Z,17.49
2022-11-23T09:56:02.051Z,18.62
2022-11-23T09:58:40.470Z,18.43
2022-11-23T10:01:16.686Z,16.75
2022-11-23T10:03:48.729Z,16.96
2022-11-23T10:06:18.893Z,16.89
2022-11-23T10:08:48.293Z,16.34
2022-11-23T10:11:24.435Z,16.96
2022-11-23T10:14:07.717Z,16.39
2022-11-23T10:16:46.950Z,17.14
2022-11-23T10:19:31.537Z,17.27
2022-11-23T10:22:16.351Z,16.74
2022-11-23T10:24:47.927Z,16.71
2022-11-23T10:27:17.927Z,16.81
2022-11-23T10:29:45.195Z,16.48
2022-11-23T10:32:50.669Z,18.01
2022-11-23T10:35:29.236Z,18.65
2022-11-23T10:38:19.195Z,18.69
2022-11-23T10:41:02.522Z,17.56
2022-11-23T10:43:52.417Z,17.17
2022-11-23T10:46:31.678Z,17.35
2022-11-23T10:49:22.909Z,17.33
2022-11-23T10:51:53.957Z,18.89
2022-11-23T10:54:30.570Z,18.98
2022-11-23T10:56:59.093Z,19.77
2022-11-23T10:59:37.867Z,17.53
2022-11-23T11:02:17.841Z,17.00
2022-11-23T11:04:45.265Z,16.89
2022-11-23T11:07:23.900Z,17.03
2022-11-23T11:09:52.507Z,18.33
2022-11-23T11:12:19.508Z,18.21
2022-11-23T11:15:17.030Z,19.78
2022-11-23T11:17:43.623Z,19.39
2022-11-23T11:20:28.395Z,17.91
2022-11-23T11:22:57.019Z,18.18
2022-11-23T11:25:36.730Z,17.24
2022-11-23T11:28:06.332Z,17.44
2022-11-23T11:30:54.226Z,17.27
2022-11-23T11:33:30.799Z,18.42
2022-11-23T11:36:03.240Z,17.14
2022-11-23T11:38:37.852Z,18.00
2022-11-23T11:41:11.756Z,19.94
2022-11-23T11:43:44.426Z,18.97
2022-11-23T11:46:31.265Z,19.11
2022-11-23T11:49:32.175Z,18.11
2022-11-23T11:52:10.757Z,19.51
2022-11-23T11:54:49.975Z,17.34
2022-11-23T11:57:21.657Z,19.59
2022-11-23T11:59:52.727Z,19.78
2022-11-23T12:02:45.288Z,19.45
2022-11-23T12:05:21.048Z,18.79
2022-11-23T12:08:12.798Z,18.82
2022-11-23T12:10:59.263Z,17.39
2022-11-23T12:13:30.228Z,17.90
2022-11-23T12:16:15.367Z,17.90
2022-11-23T12:19:05.142Z,17.46
2022-11-23T12:21:34.608Z,18.99
2022-11-23T12:24:16.773Z,19.82
2022-11-23T12:26:56.941Z,18.12
2022-11-23T12:29:56.315Z,18.08
2022-11-23T12:32:22.825Z,17.87
2022-11-23T12:35:05.396Z,16.94
2022-11-23T12:37:57.994Z,17.06
2022-11-23T12:40:53.365Z,18.23
2022-11-23T12:43:36.409Z,17.70
2022-11-23T12:46:48.143Z,18.27
2022-11-23T12:49:29.032Z,18.34
2022-11-23T12:52:26.442Z,18.22
2022-11-23T12:55:29.115Z,17.93
2022-11-23T12:58:11.670Z,18.55
2022-11-23T13:00:43.548Z,18.20
2022-11-23T13:03:47.827Z,17.97
2022-11-23T13:06:50.000Z,17.46
2022-11-23T13:09:52.517Z,17.61
2022-11-23T13:12:36.739Z,15.75
2022-11-23T13:15:40.151Z,15.51
2022-11-23T13:18:18.760Z,15.78
2022-11-23T13:21:11.023Z,15.75
2022-11-23T13:23:38.950Z,15.44
2022-11-23T13:26:20.713Z,17.19
2022-11-23T13:28:49.152Z,16.68
2022-11-23T13:31:16.179Z,16.23
2022-11-23T13:33:45.155Z,16.66
2022-11-23T13:37:10.436Z,16.70
2022-11-23T13:40:00.769Z,16.63
2022-11-23T13:42:31.073Z,16.61
2022-11-23T13:45:19.490Z,16.07
2022-11-23T13:48:48.843Z,15.42
2022-11-23T13:51:05.746Z,15.47
2022-11-23T13:53:35.728Z,15.98
2022-11-23T13:56:37.646Z,15.27
2022-11-23T13:59:22.622Z,15.64
2022-11-23T14:02:03.776Z,15.21
2022-11-23T14:04:32.975Z,15.46
2022-11-23T14:07:10.169Z,14.90
2022-11-23T14:09:43.193Z,15.29
2022-11-23T14:12:21.350Z,15.66
2022-11-23T14:15:21.539Z,14.32
2022-11-23T14:18:42.855Z,14.73
2022-11-23T14:21:52.624Z,15.04
2022-11-23T14:24:53.698Z,14.99
2022-11-23T14:27:46.171Z,15.17
2022-11-23T14:30:23.484Z,14.73
2022-11-23T14:33:13.863Z,14.61
2022-11-23T14:35:57.681Z,14.29
2022-11-23T14:38:42.764Z,14.21
2022-11-23T14:41:12.943Z,14.38
2022-11-23T14:43:42.377Z,14.28
2022-11-23T14:46:19.884Z,14.02
2022-11-23T14:48:48.461Z,14.87
2022-11-23T14:51:23.276Z,13.58
2022-11-23T14:53:53.227Z,12.81
2022-11-23T14:56:40.940Z,12.86
2022-11-23T14:59:17.974Z,13.38
2022-11-23T15:01:52.146Z,13.63
2022-11-23T15:04:26.500Z,13.49
2022-11-23T15:07:00.622Z,12.93
2022-11-23T15:10:11.428Z,12.75
2022-11-23T15:12:46.657Z,12.91
2022-11-23T15:15:21.747Z,12.74
2022-11-23T15:17:55.729Z,12.79
2022-11-23T15:20:25.215Z,12.73
2022-11-23T15:22:51.851Z,12.83
2022-11-23T15:25:19.737Z,12.40
2022-11-23T15:27:51.352Z,12.65
2022-11-23T15:30:21.505Z,12.66
2022-11-23T15:32:57.280Z,12.35
2022-11-23T15:35:31.304Z,12.55
2022-11-23T15:38:07.895Z,12.50
2022-11-23T15:40:36.933Z,12.32
2022-11-23T15:43:03.813Z,12.38
2022-11-23T15:45:35.596Z,12.33
2022-11-23T15:48:05.164Z,11.85
2022-11-23T15:50:36.487Z,12.05
2022-11-23T15:53:03.661Z,12.40
2022-11-23T15:55:30.587Z,12.19
2022-11-23T15:57:58.057Z,12.18
2022-11-23T16:00:26.105Z,12.49
2022-11-23T16:02:53.151Z,11.65
2022-11-23T16:05:22.489Z,11.46
2022-11-23T16:08:01.082Z,11.21
2022-11-23T16:10:29.970Z,11.62
2022-11-23T16:12:58.784Z,11.84
2022-11-23T16:15:37.650Z,12.04
2022-11-23T16:18:13.660Z,11.90
2022-11-23T16:20:45.213Z,11.54
2022-11-23T16:23:19.174Z,11.83
2022-11-23T16:25:57.269Z,11.78
2022-11-23T16:28:30.243Z,11.94
2022-11-23T16:30:57.913Z,11.98
2022-11-23T16:33:25.217Z,11.74
2022-11-23T16:35:52.139Z,11.73
2022-11-23T16:38:19.109Z,11.68
2022-11-23T16:40:48.109Z,12.19
2022-11-23T16:43:16.417Z,11.85
2022-11-23T16:45:48.968Z,12.05
2022-11-23T16:48:27.678Z,12.29
2022-11-23T16:50:55.697Z,12.66
2022-11-23T16:53:22.947Z,12.68
2022-11-23T16:55:53.021Z,12.53
2022-11-23T16:58:20.225Z,12.41
2022-11-23T17:00:48.997Z,11.88
2022-11-23T17:03:16.384Z,12.23
2022-11-23T17:05:43.005Z,12.37
2022-11-23T17:08:09.608Z,11.82
2022-11-23T17:10:38.202Z,11.86
2022-11-23T17:13:11.114Z,11.84
2022-11-23T17:15:37.991Z,12.01
2022-11-23T17:18:04.912Z,11.52
2022-11-23T17:20:31.475Z,11.78
2022-11-23T17:23:01.058Z,11.92
2022-11-23T17:25:27.734Z,12.07
2022-11-23T17:27:54.308Z,11.77
2022-11-23T17:30:22.073Z,12.22
2022-11-23T17:32:49.619Z,11.95
2022-11-23T17:35:17.327Z,12.16
2022-11-23T17:37:44.525Z,12.07
2022-11-23T17:40:19.567Z,12.38
2022-11-23T17:42:47.024Z,12.17
2022-11-23T17:45:14.024Z,12.43
2022-11-23T17:47:43.420Z,12.47
2022-11-23T17:50:14.237Z,12.39
2022-11-23T17:52:44.219Z,12.11
2022-11-23T17:55:12.501Z,12.27
2022-11-23T17:57:39.349Z,11.80
2022-11-23T18:00:22.432Z,11.37
2022-11-23T18:02:49.398Z,11.36
2022-11-23T18:05:21.110Z,11.51
2022-11-23T18:07:49.186Z,10.90
2022-11-23T18:10:15.988Z,10.90
2022-11-23T18:12:44.410Z,10.78
2022-11-23T18:15:11.280Z,10.85
2022-11-23T18:17:37.841Z,10.51
2022-11-23T18:20:05.001Z,10.35
2022-11-23T18:22:31.489Z,10.39
2022-11-23T18:24:58.015Z,10.17
2022-11-23T18:27:24.704Z,10.03
2022-11-23T18:29:51.377Z,10.02
2022-11-23T18:32:17.917Z,10.05
2022-11-23T18:34:44.544Z,10.13
2022-11-23T18:37:11.136Z,10.14
2022-11-23T18:39:37.912Z,10.14
2022-11-23T18:42:06.064Z,9.94
2022-11-23T18:44:33.109Z,9.84
2022-11-23T18:47:00.445Z,9.85
2022-11-23T18:49:27.306Z,10.18
2022-11-23T18:51:53.807Z,9.99
2022-11-23T18:54:20.313Z,9.85
2022-11-23T18:56:47.086Z,9.93
2022-11-23T18:59:35.071Z,9.92
2022-11-23T19:02:00.927Z,10.37
2022-11-23T19:04:27.541Z,9.96
2022-11-23T19:06:54.066Z,9.91
2022-11-23T19:09:20.579Z,9.82
2022-11-23T19:11:47.131Z,9.77
2022-11-23T19:14:13.754Z,9.82
2022-11-23T19:16:40.252Z,9.60
2022-11-23T19:19:07.467Z,9.70
2022-11-23T19:21:35.723Z,10.34
2022-11-23T19:24:03.672Z,10.23
2022-11-23T19:26:30.691Z,10.43
2022-11-23T19:28:58.030Z,9.89
2022-11-23T19:31:30.309Z,10.04
2022-11-23T19:34:02.290Z,10.42
2022-11-23T19:36:30.928Z,10.55
2022-11-23T19:38:59.228Z,10.21
2022-11-23T19:41:30.444Z,9.84
2022-11-23T19:43:59.140Z,10.03
2022-11-23T19:46:26.203Z,9.61
2022-11-23T19:48:54.467Z,9.38
2022-11-23T19:51:21.227Z,9.95
2022-11-23T19:53:49.204Z,9.87
2022-11-23T19:56:22.633Z,9.80
2022-11-23T19:58:55.253Z,9.62
2022-11-23T20:01:23.882Z,9.75
2022-11-23T20:03:53.349Z,9.96
2022-11-23T20:06:26.790Z,10.29
2022-11-23T20:09:00.690Z,10.17
2022-11-23T20:11:29.739Z,10.55
2022-11-23T20:13:57.070Z,10.84
2022-11-23T20:16:25.483Z,10.45
2022-11-23T20:18:57.118Z,9.95
2022-11-23T20:21:23.674Z,9.69
2022-11-23T20:24:01.326Z,9.84
2022-11-23T20:26:30.926Z,10.26
2022-11-23T20:28:58.618Z,10.05
2022-11-23T20:31:27.729Z,10.22
2022-11-23T20:33:54.714Z,10.07
2022-11-23T20:36:23.313Z,9.99
2022-11-23T20:38:51.532Z,9.93
2022-11-23T20:41:21.021Z,10.14
2022-11-23T20:43:49.531Z,10.38
2022-11-23T20:46:31.696Z,9.91
2022-11-23T20:49:03.635Z,9.57
2022-11-23T20:51:30.752Z,9.86
2022-11-23T20:53:57.466Z,10.03
2022-11-23T20:56:27.291Z,10.24
2022-11-23T20:58:55.697Z,10.02
2022-11-23T21:01:22.515Z,9.53
2022-11-23T21:03:54.094Z,10.20
2022-11-23T21:06:21.756Z,9.87
2022-11-23T21:08:49.436Z,9.98
2022-11-23T21:11:39.873Z,9.71
2022-11-23T21:14:17.232Z,9.61
2022-11-23T21:16:53.272Z,9.49
2022-11-23T21:19:24.956Z,9.57
2022-11-23T21:21:51.922Z,9.52
2022-11-23T21:24:18.767Z,9.48
2022-11-23T21:26:45.844Z,9.25
2022-11-23T21:29:12.772Z,9.52
2022-11-23T21:31:41.958Z,9.22
2022-11-23T21:34:21.225Z,9.23
2022-11-23T21:36:48.208Z,9.30
2022-11-23T21:39:15.088Z,9.12
2022-11-23T21:41:41.958Z,9.31
2022-11-23T21:44:09.451Z,9.44
2022-11-23T21:46:37.686Z,9.36
2022-11-23T21:49:06.587Z,9.20
2022-11-23T21:51:33.855Z,9.26
2022-11-23T21:54:03.299Z,9.27
2022-11-23T21:56:30.305Z,9.10
2022-11-23T21:58:57.187Z,9.34
2022-11-23T22:01:29.913Z,9.35
2022-11-23T22:03:58.609Z,9.14
2022-11-23T22:06:25.247Z,9.09
2022-11-23T22:08:55.058Z,9.32
2022-11-23T22:11:30.420Z,9.08
2022-11-23T22:14:08.596Z,9.16
2022-11-23T22:16:40.962Z,9.09
2022-11-23T22:19:13.452Z,9.14
2022-11-23T22:21:41.574Z,8.99
2022-11-23T22:24:12.527Z,8.97
2022-11-23T22:26:39.019Z,9.04
2022-11-23T22:29:06.757Z,9.14
2022-11-23T22:31:35.036Z,9.15
2022-11-23T22:34:03.363Z,8.99
2022-11-23T22:36:31.340Z,9.23
2022-11-23T22:39:01.938Z,9.07
2022-11-23T22:41:29.962Z,9.21
2022-11-23T22:43:56.848Z,9.13
2022-11-23T22:46:24.582Z,9.28
2022-11-23T22:48:52.102Z,9.24
2022-11-23T22:51:21.301Z,9.35
2022-11-23T22:53:47.888Z,9.18
2022-11-23T22:56:17.198Z,9.36
2022-11-23T22:58:47.715Z,9.46
2022-11-23T23:01:19.394Z,9.25
2022-11-23T23:03:46.479Z,9.31
2022-11-23T23:06:18.784Z,9.42
2022-11-23T23:08:47.091Z,9.63
2022-11-23T23:11:14.770Z,9.70
2022-11-23T23:13:41.873Z,9.77
2022-11-23T23:16:11.629Z,9.70
2022-11-23T23:18:38.629Z,9.65
2022-11-23T23:21:14.253Z,9.47
2022-11-23T23:23:46.076Z,9.11
2022-11-23T23:26:14.484Z,9.39
2022-11-23T23:28:41.428Z,9.27
2022-11-23T23:31:10.801Z,9.21
2022-11-23T23:33:37.728Z,9.50
2022-11-23T23:36:09.535Z,9.39
2022-11-23T23:38:37.226Z,9.33
2022-11-23T23:41:05.553Z,9.18
2022-11-23T23:43:32.029Z,9.30
2022-11-23T23:46:00.277Z,9.27
2022-11-23T23:48:35.721Z,9.04
2022-11-23T23:51:14.271Z,9.23
2022-11-23T23:53:41.188Z,9.03
2022-11-23T23:56:12.491Z,8.85
2022-11-23T23:58:39.005Z,9.24
